MST,Max TemperatureF,Mean TemperatureF,Min TemperatureF,Max Dew PointF,MeanDew PointF,Min DewpointF,Max Humidity, Mean Humidity, Min Humidity, Max Sea Level PressureIn, Mean Sea Level PressureIn, Min Sea Level PressureIn, Max VisibilityMiles, Mean VisibilityMiles, Min VisibilityMiles, Max Wind SpeedMPH, Mean Wind SpeedMPH, Max Gust SpeedMPH,PrecipitationIn, CloudCover, Events, WindDirDegrees
2013-2-1,57,34,10,24,15,7,93,62,14,30.36,30.29,30.21,10,10,10,20,7,25,0.00,0,,326
2013-2-2,56,34,11,23,14,4,93,55,13,30.44,30.39,30.34,10,10,10,13,7,,0.00,0,,322
2013-2-3,54,36,18,29,21,12,81,59,27,30.37,30.19,30.07,10,10,10,14,5,18,0.00,6,,321
2013-2-4,56,36,17,30,20,9,96,58,15,30.16,30.12,30.07,10,10,10,12,5,21,0.00,0,,330
2013-2-5,57,35,13,20,14,9,94,52,17,30.18,30.10,30.04,10,10,10,10,5,16,0.00,0,,333
2013-2-6,54,34,14,29,19,8,82,56,31,30.08,30.02,29.95,10,10,10,14,6,20,0.03,2,Thunderstorm,308
2013-2-7,52,34,15,26,16,6,93,52,16,30.21,30.14,30.09,10,10,10,10,6,,0.00,1,,304
2013-2-8,54,43,32,22,14,2,57,35,12,30.11,29.93,29.76,10,10,10,25,13,34,0.00,0,,161
2013-2-9,39,26,14,27,16,3,92,63,23,29.86,29.74,29.67,10,8,0,24,9,37,0.00,5,Snow,242
2013-2-10,35,28,21,21,19,17,89,65,48,29.95,29.89,29.85,10,10,10,14,8,24,0.00,6,Snow,257
2013-2-11,36,25,14,28,19,12,94,80,38,30.00,29.96,29.92,10,9,0,15,4,24,0.00,7,Snow,271
2013-2-12,37,24,10,19,13,7,92,65,31,30.20,30.11,30.00,10,10,10,20,9,24,0.00,2,,334
2013-2-13,46,26,5,16,11,2,89,61,28,30.19,30.15,30.09,10,10,5,20,5,30,0.00,0,,331
2013-2-14,48,28,9,20,14,6,92,60,28,30.27,30.17,30.12,10,10,10,20,8,28,0.00,0,,326
2013-2-15,48,30,11,17,7,-3,90,48,12,30.43,30.33,30.27,10,10,10,28,9,33,0.00,0,,329
2013-2-16,59,34,10,8,3,-3,74,40,8,30.46,30.33,30.21,10,10,10,16,6,22,0.00,0,,318
2013-2-17,59,32,6,10,4,-2,68,33,9,30.20,29.98,29.80,10,10,10,24,9,37,0.00,0,,282
2013-2-18,51,34,18,15,4,-8,69,30,9,30.11,30.04,29.90,10,10,10,22,13,30,0.00,0,,324
2013-2-19,57,32,7,28,2,-7,67,33,10,30.10,29.92,29.75,10,10,10,17,5,25,0.00,1,,182
2013-2-20,45,36,27,32,27,17,91,72,34,29.75,29.63,29.56,10,9,1,24,9,33,0.00,6,Snow-Thunderstorm,198
2013-2-21,41,30,18,24,21,15,89,66,45,29.92,29.79,29.63,10,10,10,20,9,30,0.00,4,,287
2013-2-22,39,27,15,22,17,10,95,66,36,30.07,29.96,29.91,10,10,7,16,5,25,0.00,4,Snow,295
2013-2-23,52,30,7,27,12,4,83,51,20,30.07,29.91,29.72,10,10,10,25,8,37,0.00,0,Snow,270
2013-2-24,34,28,22,29,13,-1,92,58,25,29.93,29.79,29.73,10,9,2,21,13,30,0.00,6,Snow,334
2013-2-25,47,29,11,15,10,0,84,50,14,30.09,30.01,29.94,10,10,10,18,8,28,0.00,0,,324
2013-2-26,43,24,5,15,2,-12,87,44,14,30.12,29.96,29.89,10,10,10,30,9,48,0.00,1,,317
2013-2-27,43,24,6,9,1,-5,70,41,18,30.28,30.21,30.12,10,10,10,10,5,18,0.00,0,,332
2013-2-28,50,28,7,3,-2,-9,65,32,9,30.38,30.31,30.26,10,10,10,22,8,31,0.00,0,,330